sensor_id;sensor_type;location;lat;lon;timestamp;pressure;altitude;pressure_sealevel;temperature
51693;BMP280;37777;53.066;21.638;2023-07-20T00:05:35;99910.28;;;17.42
51693;BMP280;37777;53.066;21.638;2023-07-20T00:12:37;99889.22;;;16.86
51693;BMP280;37777;53.066;21.638;2023-07-20T00:19:39;99872.09;;;16.82
51693;BMP280;37777;53.066;21.638;2023-07-20T00:26:41;99881.59;;;17.19
51693;BMP280;37777;53.066;21.638;2023-07-20T00:33:43;99877.47;;;17.42
51693;BMP280;37777;53.066;21.638;2023-07-20T00:40:45;99861.47;;;17.40
51693;BMP280;37777;53.066;21.638;2023-07-20T00:47:47;99866.69;;;17.27
51693;BMP280;37777;53.066;21.638;2023-07-20T00:54:50;99874.88;;;17.27
51693;BMP280;37777;53.066;21.638;2023-07-20T01:01:53;99858.78;;;17.37
51693;BMP280;37777;53.066;21.638;2023-07-20T01:09:19;99877.88;;;17.40
51693;BMP280;37777;53.066;21.638;2023-07-20T01:16:21;99869.53;;;17.13
51693;BMP280;37777;53.066;21.638;2023-07-20T01:23:38;99853.94;;;17.10
51693;BMP280;37777;53.066;21.638;2023-07-20T01:38:18;99851.53;;;17.16
51693;BMP280;37777;53.066;21.638;2023-07-20T01:45:21;99868.59;;;16.82
51693;BMP280;37777;53.066;21.638;2023-07-20T01:52:23;99858.88;;;16.81
51693;BMP280;37777;53.066;21.638;2023-07-20T01:59:26;99876.38;;;16.87
51693;BMP280;37777;53.066;21.638;2023-07-20T02:06:28;99881.47;;;16.85
51693;BMP280;37777;53.066;21.638;2023-07-20T02:13:30;99873.31;;;16.78
51693;BMP280;37777;53.066;21.638;2023-07-20T02:20:32;99875.72;;;16.68
51693;BMP280;37777;53.066;21.638;2023-07-20T02:27:34;99863.97;;;16.71
51693;BMP280;37777;53.066;21.638;2023-07-20T02:34:37;99880.59;;;16.32
51693;BMP280;37777;53.066;21.638;2023-07-20T02:41:39;99865.75;;;16.33
51693;BMP280;37777;53.066;21.638;2023-07-20T02:48:41;99879.09;;;16.16
51693;BMP280;37777;53.066;21.638;2023-07-20T02:55:43;99871.97;;;16.33
51693;BMP280;37777;53.066;21.638;2023-07-20T03:02:46;99877.31;;;16.59
51693;BMP280;37777;53.066;21.638;2023-07-20T03:09:54;99885.44;;;16.73
51693;BMP280;37777;53.066;21.638;2023-07-20T03:16:56;99886.56;;;16.83
51693;BMP280;37777;53.066;21.638;2023-07-20T03:23:59;99877.22;;;16.80
51693;BMP280;37777;53.066;21.638;2023-07-20T03:31:01;99877.97;;;16.77
51693;BMP280;37777;53.066;21.638;2023-07-20T03:38:03;99892.03;;;16.83
51693;BMP280;37777;53.066;21.638;2023-07-20T03:45:06;99885.41;;;16.80
51693;BMP280;37777;53.066;21.638;2023-07-20T03:52:09;99889.59;;;16.92
51693;BMP280;37777;53.066;21.638;2023-07-20T03:59:11;99894.31;;;16.88
51693;BMP280;37777;53.066;21.638;2023-07-20T04:06:13;99893.94;;;16.89
51693;BMP280;37777;53.066;21.638;2023-07-20T04:13:16;99893.50;;;16.95
51693;BMP280;37777;53.066;21.638;2023-07-20T04:20:18;99891.88;;;17.01
51693;BMP280;37777;53.066;21.638;2023-07-20T04:27:20;99905.53;;;17.01
51693;BMP280;37777;53.066;21.638;2023-07-20T04:34:22;99921.41;;;16.64
51693;BMP280;37777;53.066;21.638;2023-07-20T04:41:24;99931.16;;;16.62
51693;BMP280;37777;53.066;21.638;2023-07-20T04:48:27;99928.78;;;16.64
51693;BMP280;37777;53.066;21.638;2023-07-20T04:55:29;99927.38;;;16.38
51693;BMP280;37777;53.066;21.638;2023-07-20T05:02:31;99938.25;;;16.45
51693;BMP280;37777;53.066;21.638;2023-07-20T05:09:33;99952.25;;;16.58
51693;BMP280;37777;53.066;21.638;2023-07-20T05:16:36;99942.09;;;16.54
51693;BMP280;37777;53.066;21.638;2023-07-20T05:23:38;99924.09;;;16.68
51693;BMP280;37777;53.066;21.638;2023-07-20T05:30:40;99934.22;;;16.71
51693;BMP280;37777;53.066;21.638;2023-07-20T05:37:42;99913.16;;;16.68
51693;BMP280;37777;53.066;21.638;2023-07-20T05:44:44;99936.47;;;16.87
51693;BMP280;37777;53.066;21.638;2023-07-20T05:51:46;99942.63;;;16.98
51693;BMP280;37777;53.066;21.638;2023-07-20T05:58:50;99925.06;;;16.99
51693;BMP280;37777;53.066;21.638;2023-07-20T06:05:58;99931.25;;;17.07
51693;BMP280;37777;53.066;21.638;2023-07-20T06:13:00;99932.53;;;16.91
51693;BMP280;37777;53.066;21.638;2023-07-20T06:20:03;99939.69;;;17.30
51693;BMP280;37777;53.066;21.638;2023-07-20T06:27:05;99944.25;;;17.48
51693;BMP280;37777;53.066;21.638;2023-07-20T06:34:07;99948.50;;;17.49
51693;BMP280;37777;53.066;21.638;2023-07-20T06:41:10;99949.69;;;17.52
51693;BMP280;37777;53.066;21.638;2023-07-20T06:48:15;99958.66;;;17.52
51693;BMP280;37777;53.066;21.638;2023-07-20T06:55:17;99946.28;;;17.37
51693;BMP280;37777;53.066;21.638;2023-07-20T07:02:22;99952.88;;;17.39
51693;BMP280;37777;53.066;21.638;2023-07-20T07:09:25;99951.53;;;17.62
51693;BMP280;37777;53.066;21.638;2023-07-20T07:16:27;99950.09;;;17.46
51693;BMP280;37777;53.066;21.638;2023-07-20T07:23:29;99950.97;;;17.32
51693;BMP280;37777;53.066;21.638;2023-07-20T07:30:31;99961.13;;;17.36
51693;BMP280;37777;53.066;21.638;2023-07-20T07:37:35;99966.59;;;17.36
51693;BMP280;37777;53.066;21.638;2023-07-20T07:44:58;99963.34;;;17.52
51693;BMP280;37777;53.066;21.638;2023-07-20T07:52:00;99963.25;;;17.62
51693;BMP280;37777;53.066;21.638;2023-07-20T07:59:05;99980.31;;;17.74
51693;BMP280;37777;53.066;21.638;2023-07-20T08:06:07;99972.72;;;17.92
51693;BMP280;37777;53.066;21.638;2023-07-20T08:13:09;99972.66;;;17.99
51693;BMP280;37777;53.066;21.638;2023-07-20T08:20:13;99984.91;;;17.84
51693;BMP280;37777;53.066;21.638;2023-07-20T08:27:15;99975.84;;;17.94
51693;BMP280;37777;53.066;21.638;2023-07-20T08:34:17;99976.19;;;17.96
51693;BMP280;37777;53.066;21.638;2023-07-20T08:41:33;99972.06;;;17.81
51693;BMP280;37777;53.066;21.638;2023-07-20T08:48:37;99965.03;;;17.80
51693;BMP280;37777;53.066;21.638;2023-07-20T08:55:44;99969.97;;;17.96
51693;BMP280;37777;53.066;21.638;2023-07-20T09:02:52;99982.59;;;18.55
51693;BMP280;37777;53.066;21.638;2023-07-20T09:09:57;99955.66;;;18.77
51693;BMP280;37777;53.066;21.638;2023-07-20T09:17:00;99974.47;;;19.02
51693;BMP280;37777;53.066;21.638;2023-07-20T09:24:03;99966.84;;;19.60
51693;BMP280;37777;53.066;21.638;2023-07-20T09:31:15;99977.88;;;20.00
51693;BMP280;37777;53.066;21.638;2023-07-20T09:38:20;99978.22;;;20.22
51693;BMP280;37777;53.066;21.638;2023-07-20T09:45:39;99972.97;;;20.48
51693;BMP280;37777;53.066;21.638;2023-07-20T09:52:46;99965.16;;;20.47
51693;BMP280;37777;53.066;21.638;2023-07-20T09:59:57;99963.56;;;20.09
51693;BMP280;37777;53.066;21.638;2023-07-20T10:07:09;99957.31;;;19.69
51693;BMP280;37777;53.066;21.638;2023-07-20T10:14:12;99974.03;;;20.34
51693;BMP280;37777;53.066;21.638;2023-07-20T10:21:19;99953.34;;;20.30
51693;BMP280;37777;53.066;21.638;2023-07-20T10:28:25;99963.25;;;19.87
51693;BMP280;37777;53.066;21.638;2023-07-20T10:35:29;99950.09;;;19.98
51693;BMP280;37777;53.066;21.638;2023-07-20T10:42:33;99948.88;;;20.19
51693;BMP280;37777;53.066;21.638;2023-07-20T10:49:58;99936.16;;;20.95
51693;BMP280;37777;53.066;21.638;2023-07-20T10:57:30;99950.59;;;21.61
51693;BMP280;37777;53.066;21.638;2023-07-20T11:04:42;99935.28;;;21.31
51693;BMP280;37777;53.066;21.638;2023-07-20T11:11:47;99932.72;;;21.24
51693;BMP280;37777;53.066;21.638;2023-07-20T11:18:49;99918.13;;;21.69
51693;BMP280;37777;53.066;21.638;2023-07-20T11:25:52;99909.03;;;20.97
51693;BMP280;37777;53.066;21.638;2023-07-20T11:32:55;99912.44;;;21.47
51693;BMP280;37777;53.066;21.638;2023-07-20T11:39:58;99917.44;;;22.07
51693;BMP280;37777;53.066;21.638;2023-07-20T11:47:09;99901.91;;;22.13
51693;BMP280;37777;53.066;21.638;2023-07-20T11:54:14;99902.09;;;22.57
51693;BMP280;37777;53.066;21.638;2023-07-20T12:01:17;99888.69;;;22.08
51693;BMP280;37777;53.066;21.638;2023-07-20T12:08:20;99883.28;;;22.17
51693;BMP280;37777;53.066;21.638;2023-07-20T12:15:26;99886.03;;;21.91
51693;BMP280;37777;53.066;21.638;2023-07-20T12:22:39;99868.72;;;22.42
51693;BMP280;37777;53.066;21.638;2023-07-20T12:29:49;99869.25;;;22.97
51693;BMP280;37777;53.066;21.638;2023-07-20T12:36:55;99868.69;;;23.47
51693;BMP280;37777;53.066;21.638;2023-07-20T12:43:58;99875.69;;;23.38
51693;BMP280;37777;53.066;21.638;2023-07-20T12:51:02;99860.03;;;23.13
51693;BMP280;37777;53.066;21.638;2023-07-20T12:58:06;99863.56;;;22.06
51693;BMP280;37777;53.066;21.638;2023-07-20T13:05:09;99860.31;;;21.56
51693;BMP280;37777;53.066;21.638;2023-07-20T13:12:13;99864.38;;;21.51
51693;BMP280;37777;53.066;21.638;2023-07-20T13:19:18;99856.34;;;21.57
51693;BMP280;37777;53.066;21.638;2023-07-20T13:26:21;99848.13;;;21.70
51693;BMP280;37777;53.066;21.638;2023-07-20T13:33:25;99841.66;;;21.76
51693;BMP280;37777;53.066;21.638;2023-07-20T13:40:30;99845.53;;;22.05
51693;BMP280;37777;53.066;21.638;2023-07-20T13:47:32;99849.13;;;23.10
51693;BMP280;37777;53.066;21.638;2023-07-20T13:54:38;99854.28;;;22.51
51693;BMP280;37777;53.066;21.638;2023-07-20T14:01:51;99850.69;;;21.90
51693;BMP280;37777;53.066;21.638;2023-07-20T14:09:16;99858.34;;;21.69
51693;BMP280;37777;53.066;21.638;2023-07-20T14:16:18;99853.47;;;21.48
51693;BMP280;37777;53.066;21.638;2023-07-20T14:23:21;99860.69;;;21.29
51693;BMP280;37777;53.066;21.638;2023-07-20T14:30:26;99868.31;;;20.92
51693;BMP280;37777;53.066;21.638;2023-07-20T14:37:29;99862.56;;;20.70
51693;BMP280;37777;53.066;21.638;2023-07-20T14:44:34;99845.31;;;20.69
51693;BMP280;37777;53.066;21.638;2023-07-20T14:51:39;99846.38;;;21.34
51693;BMP280;37777;53.066;21.638;2023-07-20T14:58:46;99856.22;;;20.89
51693;BMP280;37777;53.066;21.638;2023-07-20T15:05:50;99848.91;;;20.83
51693;BMP280;37777;53.066;21.638;2023-07-20T15:12:53;99839.91;;;20.66
51693;BMP280;37777;53.066;21.638;2023-07-20T15:19:57;99845.50;;;20.46
51693;BMP280;37777;53.066;21.638;2023-07-20T15:27:06;99869.16;;;20.39
51693;BMP280;37777;53.066;21.638;2023-07-20T15:34:10;99904.03;;;20.06
51693;BMP280;37777;53.066;21.638;2023-07-20T15:41:17;99916.06;;;19.72
51693;BMP280;37777;53.066;21.638;2023-07-20T15:48:21;99919.97;;;19.51
51693;BMP280;37777;53.066;21.638;2023-07-20T15:55:24;99935.09;;;19.16
51693;BMP280;37777;53.066;21.638;2023-07-20T16:02:29;99988.28;;;18.33
51693;BMP280;37777;53.066;21.638;2023-07-20T16:09:33;99966.88;;;17.90
51693;BMP280;37777;53.066;21.638;2023-07-20T16:16:37;99984.72;;;17.64
51693;BMP280;37777;53.066;21.638;2023-07-20T16:23:40;99985.00;;;17.73
51693;BMP280;37777;53.066;21.638;2023-07-20T16:30:42;99980.59;;;17.86
51693;BMP280;37777;53.066;21.638;2023-07-20T16:37:44;99981.16;;;17.70
51693;BMP280;37777;53.066;21.638;2023-07-20T16:45:08;99984.50;;;18.23
51693;BMP280;37777;53.066;21.638;2023-07-20T16:52:10;99986.09;;;18.21
51693;BMP280;37777;53.066;21.638;2023-07-20T16:59:13;99990.03;;;18.20
51693;BMP280;37777;53.066;21.638;2023-07-20T17:06:18;99985.84;;;18.42
51693;BMP280;37777;53.066;21.638;2023-07-20T17:13:20;99992.28;;;18.28
51693;BMP280;37777;53.066;21.638;2023-07-20T17:20:22;99983.63;;;18.92
51693;BMP280;37777;53.066;21.638;2023-07-20T17:27:27;99974.50;;;19.26
51693;BMP280;37777;53.066;21.638;2023-07-20T17:34:31;99977.31;;;18.95
51693;BMP280;37777;53.066;21.638;2023-07-20T17:41:34;99978.66;;;19.10
51693;BMP280;37777;53.066;21.638;2023-07-20T17:48:37;99986.81;;;19.14
51693;BMP280;37777;53.066;21.638;2023-07-20T17:55:41;100006.69;;;19.21
51693;BMP280;37777;53.066;21.638;2023-07-20T18:02:46;100001.69;;;19.16
51693;BMP280;37777;53.066;21.638;2023-07-20T18:09:49;100000.72;;;19.03
51693;BMP280;37777;53.066;21.638;2023-07-20T18:16:51;100017.91;;;18.76
51693;BMP280;37777;53.066;21.638;2023-07-20T18:23:55;100009.13;;;18.58
51693;BMP280;37777;53.066;21.638;2023-07-20T18:30:57;100012.66;;;18.58
51693;BMP280;37777;53.066;21.638;2023-07-20T18:38:01;100013.00;;;18.30
51693;BMP280;37777;53.066;21.638;2023-07-20T18:45:04;100011.63;;;18.11
51693;BMP280;37777;53.066;21.638;2023-07-20T18:52:13;100017.38;;;17.82
51693;BMP280;37777;53.066;21.638;2023-07-20T18:59:17;100034.31;;;17.66
51693;BMP280;37777;53.066;21.638;2023-07-20T19:06:21;100030.59;;;17.42
51693;BMP280;37777;53.066;21.638;2023-07-20T19:13:23;100036.22;;;17.20
51693;BMP280;37777;53.066;21.638;2023-07-20T19:20:26;100048.63;;;17.28
51693;BMP280;37777;53.066;21.638;2023-07-20T19:27:29;100052.63;;;17.20
51693;BMP280;37777;53.066;21.638;2023-07-20T19:34:32;100049.44;;;17.29
51693;BMP280;37777;53.066;21.638;2023-07-20T19:41:34;100056.16;;;17.13
51693;BMP280;37777;53.066;21.638;2023-07-20T19:48:40;100060.47;;;17.07
51693;BMP280;37777;53.066;21.638;2023-07-20T19:55:44;100065.63;;;16.95
51693;BMP280;37777;53.066;21.638;2023-07-20T20:02:47;100071.09;;;16.87
51693;BMP280;37777;53.066;21.638;2023-07-20T20:09:53;100078.97;;;16.71
51693;BMP280;37777;53.066;21.638;2023-07-20T20:16:56;100075.50;;;16.67
51693;BMP280;37777;53.066;21.638;2023-07-20T20:24:00;100078.19;;;16.78
51693;BMP280;37777;53.066;21.638;2023-07-20T20:31:03;100083.28;;;16.65
51693;BMP280;37777;53.066;21.638;2023-07-20T20:38:09;100103.97;;;16.69
51693;BMP280;37777;53.066;21.638;2023-07-20T20:45:14;100091.13;;;16.63
51693;BMP280;37777;53.066;21.638;2023-07-20T20:52:17;100095.03;;;16.47
51693;BMP280;37777;53.066;21.638;2023-07-20T20:59:20;100118.06;;;16.32
51693;BMP280;37777;53.066;21.638;2023-07-20T21:06:24;100123.53;;;16.14
51693;BMP280;37777;53.066;21.638;2023-07-20T21:13:26;100122.34;;;16.01
51693;BMP280;37777;53.066;21.638;2023-07-20T21:20:29;100124.66;;;15.95
51693;BMP280;37777;53.066;21.638;2023-07-20T21:27:33;100129.75;;;15.93
51693;BMP280;37777;53.066;21.638;2023-07-20T21:34:37;100125.44;;;15.77
51693;BMP280;37777;53.066;21.638;2023-07-20T21:41:40;100139.03;;;15.63
51693;BMP280;37777;53.066;21.638;2023-07-20T21:48:42;100138.66;;;15.61
51693;BMP280;37777;53.066;21.638;2023-07-20T21:55:44;100150.69;;;15.56
51693;BMP280;37777;53.066;21.638;2023-07-20T22:02:46;100146.81;;;15.57
51693;BMP280;37777;53.066;21.638;2023-07-20T22:09:48;100154.47;;;15.23
51693;BMP280;37777;53.066;21.638;2023-07-20T22:16:51;100158.41;;;15.29
51693;BMP280;37777;53.066;21.638;2023-07-20T22:23:53;100154.50;;;15.27
51693;BMP280;37777;53.066;21.638;2023-07-20T22:30:59;100166.06;;;15.02
51693;BMP280;37777;53.066;21.638;2023-07-20T22:38:02;100158.63;;;14.95
51693;BMP280;37777;53.066;21.638;2023-07-20T22:45:05;100166.47;;;15.08
51693;BMP280;37777;53.066;21.638;2023-07-20T22:52:11;100156.69;;;14.99
51693;BMP280;37777;53.066;21.638;2023-07-20T22:59:14;100162.56;;;15.01
51693;BMP280;37777;53.066;21.638;2023-07-20T23:06:20;100141.78;;;14.79
51693;BMP280;37777;53.066;21.638;2023-07-20T23:13:24;100147.25;;;14.82
51693;BMP280;37777;53.066;21.638;2023-07-20T23:20:29;100135.59;;;14.82
51693;BMP280;37777;53.066;21.638;2023-07-20T23:27:31;100160.84;;;14.79
51693;BMP280;37777;53.066;21.638;2023-07-20T23:34:33;100161.59;;;14.76
51693;BMP280;37777;53.066;21.638;2023-07-20T23:41:36;100147.16;;;14.68
51693;BMP280;37777;53.066;21.638;2023-07-20T23:48:38;100149.16;;;14.75
51693;BMP280;37777;53.066;21.638;2023-07-20T23:55:44;100166.84;;;14.47
